Time;durP1;ratioP1;P1;durP2;ratioP2;P2;SDS_P1;SDS_P2;PMS_P1;PMS_P2;Temp;Humidity;BMP_temperature;BMP_pressure;BME280_temperature;BME280_humidity;BME280_pressure;Samples;Min_cycle;Max_cycle;Signal;HPM_P1;HPM_P2
2021/11/30 00:01:51;;;;;;;11.67;1.93;;;5.50;94.80;;;;;;5094224;28;20024;-74
2021/11/30 00:04:18;;;;;;;7.23;1.60;;;5.50;94.80;;;;;;5092319;28;20464;-74
2021/11/30 00:06:46;;;;;;;10.63;1.93;;;5.50;94.60;;;;;;5093500;28;20431;-75
2021/11/30 00:12:01;;;;;;;9.53;2.47;;;5.50;94.70;;;;;;5102597;28;20068;-74
2021/11/30 00:14:28;;;;;;;12.63;2.57;;;5.50;94.70;;;;;;5114248;28;20490;-74
2021/11/30 00:16:55;;;;;;;9.63;2.90;;;5.60;94.70;;;;;;5114362;28;20030;-75
2021/11/30 00:19:20;;;;;;;14.17;3.27;;;5.60;94.70;;;;;;5112747;28;20028;-75
2021/11/30 00:21:46;;;;;;;10.87;3.40;;;5.50;94.70;;;;;;5101019;28;20387;-75
2021/11/30 00:24:12;;;;;;;12.90;4.70;;;5.50;94.80;;;;;;5075589;28;20024;-75
2021/11/30 00:26:37;;;;;;;8.70;4.00;;;5.50;94.80;;;;;;5091835;28;20032;-75
2021/11/30 00:29:03;;;;;;;13.27;4.37;;;5.50;94.80;;;;;;5109349;28;20075;-75
2021/11/30 00:31:29;;;;;;;14.43;4.83;;;5.50;94.80;;;;;;5113628;28;20075;-75
2021/11/30 00:33:54;;;;;;;14.93;4.90;;;5.50;94.80;;;;;;5113569;28;20024;-76
2021/11/30 00:36:20;;;;;;;13.03;4.67;;;5.50;94.80;;;;;;5113720;28;20042;-75
2021/11/30 00:38:46;;;;;;;17.87;4.60;;;5.50;94.70;;;;;;5098893;28;20032;-80
2021/11/30 00:41:12;;;;;;;14.67;5.97;;;5.70;94.80;;;;;;5093209;28;20028;-75
2021/11/30 00:43:38;;;;;;;21.07;6.23;;;5.60;94.60;;;;;;5092905;28;20028;-75
2021/11/30 00:46:20;;;;;;;16.43;6.07;;;5.50;94.80;;;;;;5095714;28;20028;-75
2021/11/30 00:48:45;;;;;;;14.90;6.27;;;5.50;94.50;;;;;;5113180;28;20031;-76
2021/11/30 00:51:16;;;;;;;17.30;6.93;;;5.50;94.50;;;;;;5110401;28;20024;-75
2021/11/30 00:53:45;;;;;;;15.10;5.43;;;5.50;94.50;;;;;;5092975;28;20028;-75
2021/11/30 00:56:11;;;;;;;16.77;5.73;;;5.50;94.30;;;;;;5110505;28;20027;-75
2021/11/30 00:58:37;;;;;;;18.77;5.83;;;5.50;94.30;;;;;;5099873;28;20036;-75
2021/11/30 01:01:04;;;;;;;16.93;5.40;;;5.50;94.30;;;;;;5092917;28;20028;-77
2021/11/30 01:03:30;;;;;;;12.97;4.57;;;5.50;94.20;;;;;;5081161;28;20039;-75
2021/11/30 01:05:55;;;;;;;11.83;4.60;;;5.50;93.70;;;;;;5112326;28;20050;-76
2021/11/30 01:08:21;;;;;;;16.27;4.80;;;5.50;93.60;;;;;;5095257;28;20146;-76
2021/11/30 01:10:47;;;;;;;11.73;4.23;;;5.50;93.30;;;;;;5113957;28;20520;-76
2021/11/30 01:13:14;;;;;;;17.60;4.40;;;5.50;93.10;;;;;;5099036;28;20040;-75
2021/11/30 01:15:40;;;;;;;11.47;3.67;;;5.50;93.10;;;;;;5116323;28;20027;-75
2021/11/30 01:45:56;;;;;;;12.50;5.03;;;5.30;93.80;;;;;;4978720;28;20056;-80
2021/11/30 01:51:37;;;;;;;16.07;4.63;;;5.20;94.40;;;;;;4925023;29;20059;-80
2021/11/30 01:54:03;;;;;;;21.83;5.27;;;5.10;94.60;;;;;;4953959;28;20028;-81
2021/11/30 01:56:29;;;;;;;16.80;5.20;;;5.00;94.80;;;;;;4954959;28;20043;-80
2021/11/30 01:58:55;;;;;;;19.43;6.10;;;5.00;95.20;;;;;;4954989;29;20471;-81
2021/11/30 02:01:21;;;;;;;19.77;6.30;;;4.90;95.50;;;;;;4954737;29;20126;-79
2021/11/30 02:03:47;;;;;;;21.10;6.57;;;4.90;95.80;;;;;;4954837;29;20122;-81
2021/11/30 02:06:13;;;;;;;23.07;7.77;;;4.80;96.20;;;;;;4954837;28;20035;-81
2021/11/30 02:08:40;;;;;;;29.57;9.27;;;4.80;96.40;;;;;;4954679;29;20047;-81
2021/11/30 02:11:06;;;;;;;30.77;10.53;;;4.70;96.80;;;;;;4954730;29;20058;-81
2021/11/30 02:13:32;;;;;;;29.87;9.87;;;4.70;97.00;;;;;;4954390;29;20503;-80
2021/11/30 02:16:00;;;;;;;29.50;9.70;;;4.70;97.20;;;;;;4937366;29;20027;-80
2021/11/30 02:18:27;;;;;;;25.00;8.07;;;4.60;97.40;;;;;;4955909;28;20523;-81
2021/11/30 02:20:59;;;;;;;27.97;8.77;;;4.50;97.40;;;;;;4957118;28;20480;-79
2021/11/30 02:26:01;;;;;;;27.73;10.07;;;4.50;97.60;;;;;;5015088;28;20034;-80
2021/11/30 02:28:27;;;;;;;27.67;9.77;;;4.60;97.70;;;;;;5011394;28;20045;-80
2021/11/30 02:30:52;;;;;;;26.13;8.93;;;4.50;97.90;;;;;;5017302;28;20049;-82
2021/11/30 02:33:18;;;;;;;22.90;8.37;;;4.50;98.00;;;;;;5017248;28;20021;-80
2021/11/30 02:35:44;;;;;;;19.80;8.50;;;4.40;98.20;;;;;;4982984;28;20425;-80
2021/11/30 02:38:10;;;;;;;18.87;8.47;;;4.40;98.40;;;;;;4997535;28;20088;-80
2021/11/30 02:40:36;;;;;;;25.80;9.40;;;4.40;98.40;;;;;;4997901;28;20522;-80
2021/11/30 02:43:04;;;;;;;20.67;9.27;;;4.40;98.60;;;;;;5024102;28;20032;-80
2021/11/30 02:45:30;;;;;;;21.43;9.27;;;4.40;98.60;;;;;;5000985;28;20033;-80
2021/11/30 02:47:55;;;;;;;23.43;8.87;;;4.40;98.80;;;;;;4997205;28;20053;-79
2021/11/30 02:50:21;;;;;;;20.70;8.77;;;4.50;99.00;;;;;;4997155;28;20022;-81
2021/11/30 02:52:48;;;;;;;23.23;9.90;;;4.30;98.90;;;;;;5004159;28;20128;-80
2021/11/30 02:55:13;;;;;;;24.87;9.87;;;4.40;99.00;;;;;;4979633;28;20030;-80
2021/11/30 02:57:39;;;;;;;20.73;9.60;;;4.40;99.10;;;;;;5016814;28;20024;-80
2021/11/30 03:00:08;;;;;;;21.57;9.50;;;4.40;99.20;;;;;;5016841;28;20021;-81
2021/11/30 03:02:35;;;;;;;24.57;11.53;;;4.40;99.30;;;;;;5034507;28;20083;-81
2021/11/30 03:05:03;;;;;;;23.00;12.37;;;4.40;99.30;;;;;;5003578;28;20370;-81
2021/11/30 03:07:35;;;;;;;23.20;13.27;;;4.40;99.50;;;;;;4996750;28;20030;-80
2021/11/30 03:10:03;;;;;;;23.30;12.73;;;4.50;99.60;;;;;;4997390;28;20041;-80
2021/11/30 03:12:28;;;;;;;22.70;14.40;;;4.40;99.70;;;;;;5032049;28;20029;-81
2021/11/30 03:14:54;;;;;;;22.23;13.87;;;4.40;99.90;;;;;;4984908;28;20397;-81
2021/11/30 03:17:20;;;;;;;26.63;14.33;;;4.40;99.90;;;;;;4980579;28;20485;-81
2021/11/30 03:19:46;;;;;;;27.93;15.43;;;4.40;99.90;;;;;;4986769;28;20121;-81
2021/11/30 03:22:12;;;;;;;26.13;16.63;;;4.40;99.90;;;;;;5033483;28;20117;-81
2021/11/30 03:24:38;;;;;;;25.33;16.00;;;4.50;99.90;;;;;;5003706;28;20496;-81
2021/11/30 03:27:04;;;;;;;28.10;16.83;;;4.50;99.90;;;;;;4996840;28;20101;-80
2021/11/30 03:29:29;;;;;;;26.77;17.93;;;4.50;99.90;;;;;;4980705;28;20030;-81
2021/11/30 03:33:58;;;;;;;27.90;17.83;;;4.50;99.90;;;;;;5008308;28;20454;-81
2021/11/30 03:34:43;;;;;;;30.67;17.20;;;4.50;99.90;;;;;;5015104;28;20034;-81
2021/11/30 03:37:09;;;;;;;26.40;17.37;;;4.60;99.90;;;;;;4996813;28;20036;-81
2021/11/30 03:39:35;;;;;;;29.83;19.53;;;4.60;99.90;;;;;;4996147;28;20462;-82
2021/11/30 03:42:01;;;;;;;29.90;19.27;;;4.60;99.90;;;;;;5026755;28;20021;-81
2021/11/30 03:44:28;;;;;;;26.93;19.40;;;4.60;99.90;;;;;;5021056;28;20092;-81
2021/11/30 03:46:54;;;;;;;31.07;20.17;;;4.70;99.90;;;;;;4979802;28;20501;-82
2021/11/30 03:49:20;;;;;;;27.93;18.97;;;4.70;99.90;;;;;;4996115;28;20029;-82
2021/11/30 03:51:47;;;;;;;32.13;19.30;;;4.70;99.90;;;;;;5006517;28;20168;-82
2021/11/30 03:54:14;;;;;;;29.03;19.90;;;4.70;99.90;;;;;;5018873;28;20370;-82
2021/11/30 03:56:39;;;;;;;29.67;19.43;;;4.80;99.90;;;;;;4979962;28;20373;-81
2021/11/30 03:59:05;;;;;;;30.53;20.77;;;4.80;99.90;;;;;;5014166;28;20026;-81
2021/11/30 04:01:31;;;;;;;29.47;20.20;;;4.70;99.90;;;;;;5015542;28;20022;-81
2021/11/30 04:03:57;;;;;;;27.10;19.97;;;4.90;99.90;;;;;;4987690;28;20026;-81
2021/11/30 04:06:24;;;;;;;26.33;19.00;;;4.90;99.90;;;;;;4995985;28;20128;-81
2021/11/30 04:08:51;;;;;;;26.13;18.70;;;4.90;99.90;;;;;;4979428;28;20038;-82
2021/11/30 04:11:17;;;;;;;26.20;18.17;;;4.90;99.90;;;;;;5010587;28;20052;-81
2021/11/30 04:13:43;;;;;;;25.70;18.00;;;5.00;99.90;;;;;;4979667;28;20502;-81
2021/11/30 04:16:09;;;;;;;25.27;17.17;;;5.10;99.90;;;;;;5012814;28;20093;-82
2021/11/30 04:18:34;;;;;;;21.47;15.90;;;5.10;99.90;;;;;;4979604;28;20034;-81
2021/11/30 04:21:00;;;;;;;19.73;15.13;;;5.20;99.90;;;;;;5010043;28;20033;-81
2021/11/30 04:23:27;;;;;;;20.60;15.03;;;5.20;99.90;;;;;;5012958;28;20525;-82
2021/11/30 04:25:53;;;;;;;19.27;14.00;;;5.30;99.90;;;;;;4995887;28;20022;-81
2021/11/30 04:28:19;;;;;;;17.33;12.90;;;5.30;99.90;;;;;;5013393;28;20037;-81
2021/11/30 04:30:44;;;;;;;17.40;13.03;;;5.40;99.90;;;;;;4990226;28;20030;-80
2021/11/30 04:33:10;;;;;;;16.70;12.07;;;5.50;99.90;;;;;;5033206;28;20564;-81
2021/11/30 04:35:36;;;;;;;15.27;11.57;;;5.60;99.90;;;;;;5015438;28;20112;-81
2021/11/30 04:38:01;;;;;;;18.23;13.40;;;5.60;99.90;;;;;;4999079;28;20048;-81
2021/11/30 04:40:27;;;;;;;18.77;12.33;;;5.70;99.90;;;;;;5032683;28;20071;-81
2021/11/30 04:42:53;;;;;;;17.03;12.40;;;5.80;99.90;;;;;;4981068;28;20026;-82
2021/11/30 04:45:26;;;;;;;15.00;11.47;;;5.80;99.90;;;;;;4999397;28;20478;-81
2021/11/30 04:47:55;;;;;;;16.40;11.20;;;5.90;99.90;;;;;;4986474;28;20053;-81
2021/11/30 04:50:27;;;;;;;17.00;11.20;;;5.90;99.90;;;;;;5019401;28;20064;-81
2021/11/30 04:52:55;;;;;;;15.83;11.30;;;6.00;99.90;;;;;;5015937;28;20060;-81
2021/11/30 04:55:22;;;;;;;17.07;11.60;;;6.00;99.90;;;;;;5001422;28;20091;-81
2021/11/30 04:58:01;;;;;;;14.37;10.13;;;6.00;99.90;;;;;;4999684;28;20022;-81
2021/11/30 05:00:28;;;;;;;14.13;10.53;;;6.10;99.90;;;;;;5017944;28;20503;-82
2021/11/30 05:02:54;;;;;;;17.20;12.20;;;6.10;99.90;;;;;;5014381;28;20022;-81
2021/11/30 05:05:20;;;;;;;15.03;10.83;;;6.10;99.90;;;;;;4992890;28;20112;-82
2021/11/30 05:07:46;;;;;;;15.07;10.90;;;6.20;99.90;;;;;;5018969;28;20088;-82
2021/11/30 05:10:18;;;;;;;15.03;11.07;;;6.20;99.90;;;;;;5000837;28;20485;-81
2021/11/30 05:12:44;;;;;;;15.53;10.47;;;6.30;99.90;;;;;;4999156;28;20017;-81
2021/11/30 05:15:10;;;;;;;13.87;9.43;;;6.30;99.90;;;;;;5023849;28;20075;-81
2021/11/30 05:17:37;;;;;;;16.20;11.10;;;6.30;99.90;;;;;;5018205;28;20064;-81
2021/11/30 05:20:06;;;;;;;16.30;10.43;;;6.40;99.90;;;;;;5035474;28;20025;-81
2021/11/30 05:22:32;;;;;;;13.97;10.53;;;6.40;99.90;;;;;;5016527;28;20072;-81
2021/11/30 05:24:59;;;;;;;14.87;10.60;;;6.40;99.90;;;;;;5004056;28;20025;-81
2021/11/30 05:27:26;;;;;;;15.67;11.33;;;6.60;99.90;;;;;;5036095;28;20033;-81
2021/11/30 05:29:52;;;;;;;14.17;9.73;;;6.50;99.90;;;;;;5001623;28;20075;-80
2021/11/30 05:32:19;;;;;;;13.80;9.07;;;6.50;99.90;;;;;;4982429;28;20117;-81
2021/11/30 05:34:45;;;;;;;12.43;9.00;;;6.60;99.90;;;;;;5002088;28;20017;-81
2021/11/30 05:37:12;;;;;;;14.03;9.83;;;6.60;99.90;;;;;;5036258;28;20037;-82
2021/11/30 05:39:38;;;;;;;12.73;8.57;;;6.60;99.90;;;;;;5002147;28;20033;-81
2021/11/30 05:42:04;;;;;;;15.30;9.13;;;6.70;99.90;;;;;;5000469;28;20038;-81
2021/11/30 05:44:30;;;;;;;13.93;9.17;;;6.70;99.90;;;;;;5000322;28;20524;-81
2021/11/30 05:46:55;;;;;;;12.67;8.30;;;6.70;99.90;;;;;;5001408;28;20044;-81
2021/11/30 05:49:21;;;;;;;12.40;8.57;;;6.90;99.90;;;;;;5018052;28;20037;-82
2021/11/30 05:51:47;;;;;;;16.07;10.47;;;6.80;99.90;;;;;;5002858;28;20072;-81
2021/11/30 05:54:12;;;;;;;14.20;9.60;;;6.80;99.90;;;;;;4998160;28;20036;-82
2021/11/30 05:56:40;;;;;;;12.53;8.70;;;6.90;99.90;;;;;;5016019;28;20030;-83
2021/11/30 05:59:06;;;;;;;14.47;9.50;;;7.00;99.90;;;;;;5035669;28;20021;-81
2021/11/30 06:01:34;;;;;;;14.60;9.63;;;7.00;99.90;;;;;;4988548;28;20073;-82
2021/11/30 06:04:01;;;;;;;13.87;9.43;;;7.00;99.90;;;;;;5015798;28;20054;-82
2021/11/30 06:06:33;;;;;;;16.23;10.77;;;7.00;99.90;;;;;;5015040;28;20013;-83
2021/11/30 06:08:59;;;;;;;14.53;9.37;;;7.10;99.90;;;;;;5017450;28;20059;-83
2021/11/30 06:11:26;;;;;;;15.00;9.23;;;7.10;99.90;;;;;;5024073;28;20087;-83
2021/11/30 06:13:52;;;;;;;16.13;10.53;;;7.10;99.90;;;;;;5015600;28;20030;-82
2021/11/30 06:16:18;;;;;;;16.37;10.77;;;7.10;99.90;;;;;;5008214;28;20028;-84
2021/11/30 06:18:44;;;;;;;17.57;11.27;;;7.20;99.90;;;;;;5017684;28;20450;-83
2021/11/30 06:21:11;;;;;;;17.10;11.13;;;7.20;99.90;;;;;;4991718;28;20022;-83
2021/11/30 06:23:39;;;;;;;18.67;12.40;;;7.20;99.90;;;;;;4997599;28;20026;-82
2021/11/30 06:26:06;;;;;;;18.93;11.50;;;7.30;99.90;;;;;;4970714;28;20021;-83
2021/11/30 06:28:31;;;;;;;21.27;12.37;;;7.30;99.90;;;;;;4997166;28;20038;-84
2021/11/30 06:30:57;;;;;;;18.00;11.50;;;7.40;99.90;;;;;;5022471;28;20356;-81
2021/11/30 06:33:23;;;;;;;17.47;11.17;;;7.40;99.90;;;;;;5007218;28;20057;-84
2021/11/30 06:35:48;;;;;;;17.77;11.47;;;7.40;99.90;;;;;;4999607;28;20088;-82
2021/11/30 06:38:15;;;;;;;17.60;11.03;;;7.40;99.90;;;;;;5007269;28;20037;-83
2021/11/30 06:40:41;;;;;;;17.87;10.67;;;7.60;99.90;;;;;;5009115;28;20042;-83
2021/11/30 06:43:07;;;;;;;15.97;10.00;;;7.50;99.90;;;;;;5013408;28;20672;-83
2021/11/30 06:45:32;;;;;;;15.13;9.50;;;7.60;99.90;;;;;;5011745;28;20365;-82
2021/11/30 06:47:58;;;;;;;12.93;8.37;;;7.70;99.90;;;;;;4977772;28;20054;-81
2021/11/30 06:50:24;;;;;;;14.97;7.83;;;7.80;99.90;;;;;;5007984;28;20034;-83
2021/11/30 06:52:51;;;;;;;13.73;8.30;;;7.80;99.90;;;;;;5013590;28;20108;-82
2021/11/30 06:55:17;;;;;;;14.00;8.40;;;7.90;99.90;;;;;;4991395;28;20052;-83
2021/11/30 06:57:42;;;;;;;13.57;8.00;;;7.90;99.90;;;;;;4995835;28;20029;-82
2021/11/30 07:00:11;;;;;;;13.97;7.93;;;8.00;99.90;;;;;;5002784;28;20113;-83
2021/11/30 07:02:37;;;;;;;14.10;8.67;;;8.10;99.90;;;;;;5005812;28;20022;-83
2021/11/30 07:05:18;;;;;;;14.83;8.80;;;8.10;99.90;;;;;;5013164;28;20033;-83
2021/11/30 07:13:02;;;;;;;16.30;8.67;;;8.20;99.90;;;;;;5004612;28;20033;-81
2021/11/30 07:15:27;;;;;;;15.83;8.70;;;8.30;99.90;;;;;;5010842;28;20378;-82
2021/11/30 07:17:53;;;;;;;17.73;9.63;;;8.30;99.90;;;;;;5011592;28;20022;-82
2021/11/30 07:20:19;;;;;;;15.53;9.27;;;8.30;99.90;;;;;;4995348;28;20459;-83
2021/11/30 07:22:44;;;;;;;22.43;10.10;;;8.40;99.90;;;;;;5012658;28;20038;-83
2021/11/30 07:25:10;;;;;;;17.60;9.70;;;8.50;99.90;;;;;;4996857;28;20022;-83
2021/11/30 07:27:36;;;;;;;21.90;10.60;;;8.40;99.90;;;;;;5014166;28;20038;-82
2021/11/30 07:30:03;;;;;;;21.30;10.90;;;8.50;99.90;;;;;;4996744;28;20026;-83
2021/11/30 07:32:29;;;;;;;22.67;12.17;;;8.50;99.90;;;;;;5013274;28;20030;-82
2021/11/30 07:34:55;;;;;;;22.40;11.97;;;8.50;99.90;;;;;;5014207;28;20033;-83
2021/11/30 07:37:20;;;;;;;26.13;12.17;;;8.60;99.90;;;;;;4995977;28;20036;-83
2021/11/30 07:39:46;;;;;;;23.50;12.87;;;8.60;99.90;;;;;;5013238;28;20511;-85
2021/11/30 07:42:12;;;;;;;25.07;12.70;;;8.60;99.90;;;;;;4996524;28;20497;-84
2021/11/30 07:44:38;;;;;;;21.63;13.00;;;8.70;99.90;;;;;;5011918;28;20470;-83
2021/11/30 07:47:03;;;;;;;27.10;14.03;;;8.70;99.90;;;;;;5004367;28;20524;-83
2021/11/30 07:49:29;;;;;;;23.90;13.00;;;8.70;99.90;;;;;;4996013;28;20366;-83
2021/11/30 07:51:55;;;;;;;23.63;12.13;;;8.70;99.90;;;;;;5012510;28;20034;-81
2021/11/30 07:54:21;;;;;;;27.70;11.30;;;8.70;99.90;;;;;;4987424;28;20022;-83
2021/11/30 07:56:48;;;;;;;26.20;12.47;;;8.70;99.90;;;;;;5001593;28;20504;-82
2021/11/30 07:59:14;;;;;;;28.27;13.73;;;8.80;99.90;;;;;;4997424;28;20018;-84
2021/11/30 08:01:40;;;;;;;26.23;12.30;;;8.80;99.90;;;;;;5012422;28;20033;-82
2021/11/30 08:04:05;;;;;;;27.17;11.90;;;8.80;99.90;;;;;;4996060;28;20025;-82
2021/11/30 08:06:31;;;;;;;22.23;10.70;;;8.80;99.90;;;;;;5012441;28;20058;-80
2021/11/30 08:08:57;;;;;;;21.97;12.00;;;8.80;99.90;;;;;;5013517;28;20478;-82
2021/11/30 08:11:23;;;;;;;25.00;10.83;;;8.80;99.90;;;;;;5011750;28;20022;-84
2021/11/30 08:13:49;;;;;;;26.63;12.07;;;8.90;99.90;;;;;;5012058;28;20018;-85
2021/11/30 08:16:14;;;;;;;23.37;11.77;;;8.80;99.90;;;;;;5012212;28;20026;-82
2021/11/30 08:18:40;;;;;;;27.57;11.43;;;8.80;99.90;;;;;;4995106;28;20025;-82
2021/11/30 08:21:06;;;;;;;23.23;10.97;;;8.80;99.90;;;;;;5011574;28;20018;-85
2021/11/30 08:23:32;;;;;;;22.33;11.17;;;8.90;99.90;;;;;;5011930;28;20068;-84
2021/11/30 08:25:58;;;;;;;21.43;10.80;;;8.90;99.90;;;;;;5012281;28;20026;-82
2021/11/30 08:28:23;;;;;;;24.93;10.93;;;8.80;99.90;;;;;;4995372;28;20088;-83
2021/11/30 08:30:50;;;;;;;24.67;10.13;;;8.90;99.90;;;;;;5011785;28;20092;-83
2021/11/30 08:33:17;;;;;;;22.33;10.83;;;8.90;99.90;;;;;;4995627;28;20021;-81
2021/11/30 08:35:44;;;;;;;27.97;11.77;;;8.90;99.90;;;;;;5012197;28;20030;-82
2021/11/30 08:38:10;;;;;;;19.57;9.73;;;8.90;99.90;;;;;;5012085;28;20052;-83
2021/11/30 08:40:35;;;;;;;20.20;8.90;;;8.90;99.90;;;;;;5012195;28;20057;-84
2021/11/30 08:43:01;;;;;;;20.77;9.43;;;9.00;99.90;;;;;;4995096;28;20026;-83
2021/11/30 08:45:27;;;;;;;21.07;9.47;;;9.00;99.90;;;;;;5011696;28;20030;-83
2021/11/30 08:47:53;;;;;;;22.83;9.43;;;9.00;99.90;;;;;;5011868;28;20437;-81
2021/11/30 08:50:19;;;;;;;25.67;10.07;;;9.10;99.90;;;;;;5011836;28;20034;-82
2021/11/30 08:52:45;;;;;;;26.70;9.37;;;9.00;99.90;;;;;;5012096;28;20045;-81
2021/11/30 08:55:13;;;;;;;23.03;9.43;;;9.00;99.90;;;;;;4995773;28;20022;-83
2021/11/30 08:57:38;;;;;;;21.40;9.20;;;9.00;99.90;;;;;;5010043;28;20062;-86
2021/11/30 09:00:11;;;;;;;19.60;8.80;;;9.00;99.90;;;;;;5000529;28;20053;-85
2021/11/30 09:02:37;;;;;;;18.07;8.40;;;9.10;99.90;;;;;;4992314;28;20367;-86
2021/11/30 09:05:05;;;;;;;18.33;8.10;;;9.10;99.90;;;;;;4993444;28;20062;-84
2021/11/30 09:07:31;;;;;;;19.77;8.93;;;9.10;99.90;;;;;;4991859;28;20038;-80
2021/11/30 09:09:57;;;;;;;23.67;8.87;;;9.10;99.90;;;;;;4993265;28;20026;-82
2021/11/30 09:12:24;;;;;;;17.10;8.00;;;9.10;99.90;;;;;;4975854;28;20031;-83
2021/11/30 09:14:50;;;;;;;17.90;7.73;;;9.10;99.90;;;;;;4992258;28;20026;-83
2021/11/30 09:17:16;;;;;;;17.13;6.80;;;9.20;99.90;;;;;;4992546;28;20034;-81
2021/11/30 09:19:43;;;;;;;19.77;6.77;;;9.20;99.90;;;;;;4959366;28;20054;-81
2021/11/30 09:22:08;;;;;;;15.37;6.53;;;9.30;99.90;;;;;;4992056;28;20459;-80
2021/11/30 09:24:34;;;;;;;17.87;6.50;;;9.20;99.90;;;;;;4991814;28;20026;-82
2021/11/30 09:27:00;;;;;;;13.10;5.50;;;9.20;99.90;;;;;;4975918;28;20027;-85
2021/11/30 09:29:26;;;;;;;12.10;5.43;;;9.20;99.90;;;;;;4991995;28;20553;-84
2021/11/30 09:31:52;;;;;;;13.03;5.37;;;9.30;99.90;;;;;;4996226;28;20030;-82
2021/11/30 09:34:18;;;;;;;16.57;5.53;;;9.30;99.90;;;;;;4984375;28;20076;-85
2021/11/30 09:36:46;;;;;;;18.07;5.80;;;9.40;99.90;;;;;;4989990;28;20022;-86
2021/11/30 09:39:12;;;;;;;15.60;5.40;;;9.40;99.90;;;;;;5014982;28;20014;-84
2021/11/30 09:41:37;;;;;;;14.37;5.10;;;9.40;99.90;;;;;;5015017;28;20040;-82
2021/11/30 09:44:04;;;;;;;13.33;4.57;;;9.40;99.90;;;;;;5015333;28;20014;-83
2021/11/30 09:46:31;;;;;;;13.17;5.00;;;9.40;99.90;;;;;;5014430;28;20049;-89
2021/11/30 09:48:57;;;;;;;14.63;4.87;;;9.40;99.90;;;;;;5016018;28;20045;-83
2021/11/30 09:51:23;;;;;;;15.90;4.70;;;9.40;99.90;;;;;;5017191;28;20026;-88
2021/11/30 09:53:49;;;;;;;14.43;4.40;;;9.40;99.90;;;;;;5016416;28;20026;-90
2021/11/30 09:56:15;;;;;;;12.40;4.90;;;9.40;99.90;;;;;;5016056;28;20057;-89
2021/11/30 09:58:41;;;;;;;10.43;4.77;;;9.50;99.90;;;;;;5016396;28;20455;-89
2021/11/30 10:01:12;;;;;;;12.93;4.57;;;9.50;99.90;;;;;;5015970;28;20097;-87
2021/11/30 10:03:42;;;;;;;9.33;4.03;;;9.50;99.90;;;;;;5016026;28;20026;-88
2021/11/30 10:06:09;;;;;;;11.63;3.90;;;9.50;99.90;;;;;;5016397;28;20014;-89
2021/11/30 10:08:47;;;;;;;9.10;3.73;;;9.50;99.90;;;;;;5016351;28;20088;-90
2021/11/30 10:11:29;;;;;;;17.97;5.00;;;9.50;99.90;;;;;;5015960;28;20022;-91
2021/11/30 10:14:14;;;;;;;5.10;2.33;;;9.50;99.90;;;;;;4995862;28;20030;-89
2021/11/30 10:16:40;;;;;;;;;;;9.50;99.90;;;;;;4997218;28;20023;-88
2021/11/30 10:19:06;;;;;;;2.00;0.50;;;9.50;99.90;;;;;;4995684;28;19934;-86
2021/11/30 10:21:32;;;;;;;1.77;0.50;;;9.40;99.90;;;;;;4979234;28;20028;-86
2021/11/30 10:24:04;;;;;;;1.80;0.40;;;9.40;99.90;;;;;;4994986;28;20029;-82
2021/11/30 10:26:32;;;;;;;2.47;0.50;;;9.30;99.90;;;;;;4994641;28;20026;-81
2021/11/30 10:28:59;;;;;;;2.80;0.50;;;9.30;99.90;;;;;;4995661;28;20038;-84
2021/11/30 10:31:42;;;;;;;2.87;0.50;;;9.20;99.90;;;;;;4994573;28;20022;-85
2021/11/30 10:34:12;;;;;;;1.07;0.40;;;9.20;99.90;;;;;;4994644;28;20048;-88
2021/11/30 10:36:44;;;;;;;2.20;0.33;;;9.20;99.90;;;;;;4996861;28;20018;-89
2021/11/30 10:39:43;;;;;;;3.43;0.60;;;9.20;99.90;;;;;;4995541;28;20030;-85
2021/11/30 10:42:14;;;;;;;2.33;0.40;;;9.20;99.90;;;;;;4983352;28;20034;-88
2021/11/30 10:44:40;;;;;;;0.60;0.30;;;9.20;99.90;;;;;;4994283;28;20019;-84
2021/11/30 10:47:19;;;;;;;2.20;0.33;;;9.20;99.90;;;;;;5007343;28;20053;-85
2021/11/30 10:49:56;;;;;;;2.20;0.67;;;9.20;99.90;;;;;;5015253;28;20042;-88
2021/11/30 10:52:25;;;;;;;1.90;0.40;;;9.20;99.90;;;;;;4998063;28;20029;-87
2021/11/30 10:55:01;;;;;;;2.53;0.47;;;9.20;99.90;;;;;;5014867;28;20033;-83
2021/11/30 10:57:28;;;;;;;2.10;0.40;;;9.10;99.90;;;;;;5016425;28;20101;-90
2021/11/30 11:00:15;;;;;;;1.90;0.50;;;9.10;99.90;;;;;;4998734;28;20072;-86
2021/11/30 11:02:53;;;;;;;0.70;0.40;;;9.10;99.90;;;;;;5015581;28;20105;-92
2021/11/30 11:05:40;;;;;;;2.83;0.60;;;9.10;99.90;;;;;;4998317;28;20438;-86
2021/11/30 11:08:16;;;;;;;3.33;0.70;;;9.10;99.90;;;;;;5014901;28;20083;-85
2021/11/30 11:10:48;;;;;;;4.90;0.67;;;9.10;99.90;;;;;;5016510;28;20014;-84
2021/11/30 11:13:41;;;;;;;2.57;0.70;;;9.10;99.90;;;;;;5000254;28;20025;-83
2021/11/30 11:16:16;;;;;;;3.40;0.97;;;9.10;99.90;;;;;;4997218;28;20025;-83
2021/11/30 11:18:43;;;;;;;4.17;1.00;;;9.10;99.90;;;;;;5017815;28;20026;-84
2021/11/30 11:21:13;;;;;;;5.97;1.17;;;9.00;99.90;;;;;;5000293;28;20029;-83
2021/11/30 11:23:42;;;;;;;3.90;0.93;;;9.00;99.90;;;;;;5015590;28;20030;-84
2021/11/30 11:26:25;;;;;;;7.53;1.00;;;9.00;99.90;;;;;;4968675;28;20033;-86
2021/11/30 11:28:53;;;;;;;7.13;1.00;;;9.00;99.90;;;;;;5012592;28;20057;-85
2021/11/30 11:31:20;;;;;;;3.20;0.70;;;9.00;99.90;;;;;;5017813;28;20021;-86
2021/11/30 11:33:47;;;;;;;4.37;0.90;;;9.00;99.90;;;;;;5034562;28;20025;-87
2021/11/30 11:36:13;;;;;;;12.67;1.20;;;8.90;99.90;;;;;;5034687;28;20107;-85
2021/11/30 11:38:39;;;;;;;4.40;1.33;;;8.90;99.90;;;;;;5001151;28;20358;-86
2021/11/30 11:41:06;;;;;;;7.53;0.83;;;8.90;99.90;;;;;;5017392;28;20021;-87
2021/11/30 11:43:33;;;;;;;8.47;1.00;;;8.90;99.90;;;;;;5000865;28;20470;-87
2021/11/30 11:45:59;;;;;;;9.40;1.00;;;8.90;99.90;;;;;;5000120;28;20031;-86
2021/11/30 11:48:29;;;;;;;4.70;0.77;;;8.90;99.90;;;;;;5000567;28;20042;-86
2021/11/30 11:51:00;;;;;;;5.00;0.77;;;8.90;99.90;;;;;;5016859;28;20048;-87
2021/11/30 11:53:35;;;;;;;8.33;1.30;;;8.90;99.90;;;;;;5029722;28;20030;-86
2021/11/30 11:56:29;;;;;;;3.63;0.80;;;8.90;99.90;;;;;;4996588;28;20351;-87
2021/11/30 11:59:19;;;;;;;2.00;0.63;;;8.90;99.90;;;;;;5026303;28;20021;-87
2021/11/30 12:01:48;;;;;;;8.57;1.27;;;8.90;99.90;;;;;;5018591;28;20025;-86
2021/11/30 12:04:16;;;;;;;8.30;1.57;;;8.90;99.90;;;;;;5017090;28;20351;-87
2021/11/30 12:07:01;;;;;;;6.30;1.20;;;8.90;99.90;;;;;;5036505;28;20025;-83
2021/11/30 12:09:33;;;;;;;6.00;1.07;;;8.90;99.90;;;;;;5017489;28;20035;-86
2021/11/30 12:12:11;;;;;;;5.07;1.03;;;8.90;99.90;;;;;;5034674;28;20045;-82
2021/11/30 12:14:43;;;;;;;4.37;1.10;;;8.90;99.90;;;;;;5017364;28;20021;-85
2021/11/30 12:17:24;;;;;;;4.07;1.10;;;8.90;99.90;;;;;;5015748;28;20372;-84
2021/11/30 12:20:00;;;;;;;8.37;1.10;;;8.90;99.90;;;;;;5016343;28;20461;-88
2021/11/30 12:22:46;;;;;;;4.97;1.20;;;8.90;99.90;;;;;;5016379;28;20450;-84
2021/11/30 12:25:41;;;;;;;5.00;0.90;;;8.90;99.90;;;;;;5015112;28;20372;-84
2021/11/30 12:28:09;;;;;;;6.10;1.00;;;8.90;99.90;;;;;;5034365;28;20076;-87
2021/11/30 12:30:44;;;;;;;5.63;1.00;;;8.80;99.90;;;;;;5015764;28;20143;-88
2021/11/30 12:33:29;;;;;;;4.90;1.00;;;8.90;99.90;;;;;;5015796;28;20121;-89
2021/11/30 12:35:58;;;;;;;5.23;1.00;;;8.90;99.90;;;;;;5015455;28;20029;-85
2021/11/30 12:38:44;;;;;;;6.57;0.73;;;8.90;99.90;;;;;;5033377;28;20557;-85
2021/11/30 12:41:22;;;;;;;3.03;0.77;;;8.90;99.90;;;;;;5016208;28;20129;-87
2021/11/30 12:43:49;;;;;;;3.57;0.80;;;8.90;99.90;;;;;;5016307;28;20025;-88
2021/11/30 12:46:50;;;;;;;3.33;0.70;;;8.90;99.90;;;;;;5000292;28;20035;-87
2021/11/30 12:49:31;;;;;;;4.03;1.00;;;8.90;99.90;;;;;;4989231;28;20030;-86
2021/11/30 12:52:10;;;;;;;6.93;0.70;;;8.90;99.90;;;;;;4992860;28;20113;-87
2021/11/30 12:54:39;;;;;;;2.93;0.60;;;9.00;99.90;;;;;;4993999;28;20358;-84
2021/11/30 12:57:06;;;;;;;2.80;0.57;;;9.00;99.90;;;;;;4988081;28;20068;-85
2021/11/30 12:59:37;;;;;;;6.83;0.80;;;9.00;99.90;;;;;;4995098;28;20022;-86
2021/11/30 13:02:28;;;;;;;4.13;0.83;;;9.00;99.90;;;;;;5013537;28;20532;-87
2021/11/30 13:05:18;;;;;;;3.57;0.80;;;9.00;99.90;;;;;;5008531;28;20029;-87
2021/11/30 13:07:47;;;;;;;2.60;0.93;;;9.00;99.90;;;;;;4997307;28;20038;-88
2021/11/30 13:10:25;;;;;;;4.60;1.20;;;8.90;99.90;;;;;;4996309;28;20014;-88
2021/11/30 13:12:54;;;;;;;6.03;1.37;;;9.00;99.90;;;;;;4997903;28;20484;-88
2021/11/30 13:15:23;;;;;;;3.10;1.20;;;9.00;99.90;;;;;;4996935;28;20473;-88
2021/11/30 13:17:49;;;;;;;3.83;1.43;;;9.00;99.90;;;;;;4997318;28;20023;-87
2021/11/30 13:20:22;;;;;;;4.53;1.60;;;9.00;99.90;;;;;;5008426;28;20026;-88
2021/11/30 13:22:48;;;;;;;6.23;1.80;;;9.00;99.90;;;;;;5017708;28;20025;-87
2021/11/30 13:25:19;;;;;;;3.87;1.50;;;9.10;99.90;;;;;;5013236;28;20040;-85
2021/11/30 13:27:53;;;;;;;5.70;2.10;;;9.10;99.90;;;;;;5014218;28;20044;-87
2021/11/30 13:30:21;;;;;;;5.03;2.13;;;9.10;99.90;;;;;;5015624;28;20014;-85
2021/11/30 13:32:52;;;;;;;4.67;1.93;;;9.10;99.90;;;;;;5017531;28;20458;-91
2021/11/30 13:35:25;;;;;;;7.07;2.10;;;9.10;99.90;;;;;;5017798;28;20059;-91